Allenton, Michigan
Current Conditions -  °F | °C
As of 2:13 PM on Sunday 21 Dec 2014 (Local Time) from KD95 Reporting Station
Overcast Overcast  
Wind Chill: -3°   Ceiling: 6000
Heat Index:   Visibility: 10mi
Dew Point: -5°   Wind: 6mph
Humidity: 69%   Direction: 190°S
Pressure: 30.22"   Gusts: NA
Location:  42.92°N, 82.95°W
Report Text: KD95 211913Z AUTO 19005KT 10SM SCT028 OVC060 00/M05 A3022 RMK AO2 T00031048
Loading
Personal Weather Stations






























Interactive Weather Map New forecast layout! Learn more

10-Day Weather Forecast

Advertisements
Track Severe Weather on mobile